createdAt,value
2024-04-09T00:01:03.661Z,15.30
2024-04-09T00:03:33.357Z,15.30
2024-04-09T00:06:09.263Z,15.30
2024-04-09T00:08:36.919Z,15.30
2024-04-09T00:11:08.350Z,15.40
2024-04-09T00:13:38.337Z,15.40
2024-04-09T00:16:13.590Z,15.50
2024-04-09T00:18:40.905Z,15.50
2024-04-09T00:21:10.769Z,15.50
2024-04-09T00:23:37.998Z,15.50
2024-04-09T00:26:08.000Z,15.50
2024-04-09T00:28:37.915Z,15.40
2024-04-09T00:31:08.392Z,15.40
2024-04-09T00:33:36.332Z,15.40
2024-04-09T00:36:06.389Z,15.40
2024-04-09T00:38:34.322Z,15.50
2024-04-09T00:41:06.766Z,15.50
2024-04-09T00:43:35.419Z,15.50
2024-04-09T00:46:08.852Z,15.50
2024-04-09T00:48:36.318Z,15.60
2024-04-09T00:51:08.379Z,15.60
2024-04-09T00:53:37.999Z,15.60
2024-04-09T00:56:09.683Z,15.60
2024-04-09T00:58:37.133Z,15.70
2024-04-09T01:01:14.586Z,15.70
2024-04-09T01:03:42.767Z,15.70
2024-04-09T01:06:13.620Z,15.70
2024-04-09T01:08:40.928Z,15.70
2024-04-09T01:11:11.429Z,15.70
2024-04-09T01:13:40.564Z,15.60
2024-04-09T01:16:13.686Z,15.60
2024-04-09T01:18:41.615Z,15.50
2024-04-09T01:21:11.981Z,15.50
2024-04-09T01:23:42.044Z,15.50
2024-04-09T01:26:15.496Z,15.50
2024-04-09T01:28:43.808Z,15.40
2024-04-09T01:31:17.118Z,15.40
2024-04-09T01:33:46.959Z,15.40
2024-04-09T01:36:17.019Z,15.40
2024-04-09T01:38:47.141Z,15.40
2024-04-09T01:41:16.975Z,15.40
2024-04-09T01:43:44.799Z,15.30
2024-04-09T01:46:15.857Z,15.30
2024-04-09T01:48:43.955Z,15.20
2024-04-09T01:51:15.026Z,15.20
2024-04-09T01:53:43.132Z,15.10
2024-04-09T01:56:16.490Z,15.10
2024-04-09T01:58:43.808Z,15.10
2024-04-09T02:01:15.739Z,15.10
2024-04-09T02:03:43.157Z,15.00
2024-04-09T02:06:21.149Z,15.00
2024-04-09T02:08:48.482Z,15.00
2024-04-09T02:11:23.597Z,14.90
2024-04-09T02:13:50.861Z,14.90
2024-04-09T02:16:22.548Z,14.90
2024-04-09T02:18:50.204Z,14.90
2024-04-09T02:21:21.699Z,14.90
2024-04-09T02:23:49.372Z,14.80
2024-04-09T02:26:22.244Z,14.80
2024-04-09T02:28:49.799Z,14.80
2024-04-09T02:31:19.763Z,15.10
2024-04-09T02:33:47.042Z,15.60
2024-04-09T02:36:18.054Z,16.00
2024-04-09T02:38:45.830Z,16.40
2024-04-09T02:41:18.176Z,16.70
2024-04-09T02:43:48.083Z,16.90
2024-04-09T02:46:17.935Z,17.10
2024-04-09T02:48:45.733Z,17.10
2024-04-09T02:51:16.261Z,17.00
2024-04-09T02:53:43.533Z,16.90
2024-04-09T02:56:13.684Z,16.80
2024-04-09T02:58:40.914Z,16.70
2024-04-09T03:01:14.161Z,16.60
2024-04-09T03:03:41.548Z,16.60
2024-04-09T03:06:13.040Z,16.70
2024-04-09T03:08:40.620Z,16.60
2024-04-09T03:11:14.918Z,16.50
2024-04-09T03:13:43.214Z,16.40
2024-04-09T03:16:21.586Z,16.40
2024-04-09T03:18:51.534Z,16.30
2024-04-09T03:21:21.594Z,16.30
2024-04-09T03:23:48.907Z,16.20
2024-04-09T03:26:18.913Z,16.30
2024-04-09T03:28:48.744Z,16.20
2024-04-09T03:31:18.596Z,16.20
2024-04-09T03:33:48.586Z,16.20
2024-04-09T03:36:16.086Z,16.20
2024-04-09T03:38:47.339Z,16.20
2024-04-09T03:41:17.227Z,16.10
2024-04-09T03:43:45.104Z,16.10
2024-04-09T03:46:18.027Z,16.10
2024-04-09T03:48:50.104Z,16.00
2024-04-09T03:51:21.404Z,16.00
2024-04-09T03:53:48.981Z,16.00
2024-04-09T03:56:18.887Z,15.90
2024-04-09T03:58:47.154Z,16.10
2024-04-09T04:01:17.632Z,15.90
2024-04-09T04:03:49.583Z,15.80
2024-04-09T04:06:19.621Z,15.80
2024-04-09T04:08:47.002Z,15.80
2024-04-09T04:11:18.295Z,15.70
2024-04-09T04:13:45.564Z,15.70
2024-04-09T04:16:16.560Z,15.70
2024-04-09T04:18:45.709Z,15.60
2024-04-09T04:21:20.281Z,15.60
2024-04-09T04:23:48.985Z,15.50
2024-04-09T04:26:20.045Z,15.50
2024-04-09T04:28:48.608Z,15.50
2024-04-09T04:31:19.516Z,15.40
2024-04-09T04:33:48.794Z,15.40
2024-04-09T04:36:22.447Z,15.40
2024-04-09T04:38:50.795Z,15.40
2024-04-09T04:41:21.691Z,15.30
2024-04-09T04:43:49.268Z,15.30
2024-04-09T04:46:19.406Z,15.20
2024-04-09T04:48:47.206Z,15.20
2024-04-09T04:51:17.140Z,15.10
2024-04-09T04:53:47.041Z,15.10
2024-04-09T04:56:16.941Z,15.00
2024-04-09T04:58:44.219Z,15.00
2024-04-09T05:01:14.134Z,14.90
2024-04-09T05:03:44.085Z,14.80
2024-04-09T05:06:11.890Z,14.70
2024-04-09T05:08:41.744Z,14.70
2024-04-09T05:11:12.141Z,14.60
2024-04-09T05:13:42.049Z,14.60
2024-04-09T05:16:09.343Z,14.50
2024-04-09T05:18:39.391Z,14.50
2024-04-09T05:21:06.802Z,14.40
2024-04-09T05:23:36.627Z,14.30
2024-04-09T05:26:04.210Z,14.40
2024-04-09T05:28:36.844Z,14.30
2024-04-09T05:31:04.900Z,14.30
2024-04-09T05:33:34.834Z,14.30
2024-04-09T05:36:02.327Z,14.30
2024-04-09T05:38:33.966Z,14.30
2024-04-09T05:41:02.234Z,14.30
2024-04-09T05:43:32.027Z,14.60
2024-04-09T05:46:04.565Z,14.30
2024-04-09T05:48:32.373Z,14.30
2024-04-09T05:51:02.445Z,14.20
2024-04-09T05:53:30.317Z,14.30
2024-04-09T05:56:00.556Z,14.30
2024-04-09T05:58:27.919Z,14.20
2024-04-09T06:00:57.986Z,14.20
2024-04-09T06:03:29.179Z,14.20
2024-04-09T06:06:00.017Z,14.20
2024-04-09T06:08:27.338Z,14.20
2024-04-09T06:10:57.441Z,14.20
2024-04-09T06:13:24.701Z,14.20
2024-04-09T06:15:54.585Z,14.20
2024-04-09T06:18:22.075Z,14.20
2024-04-09T06:20:54.569Z,14.30
2024-04-09T06:23:22.886Z,14.30
2024-04-09T06:25:59.433Z,14.40
2024-04-09T06:28:26.673Z,14.50
2024-04-09T06:30:57.171Z,14.50
2024-04-09T06:33:26.983Z,14.60
2024-04-09T06:36:05.674Z,14.60
2024-04-09T06:38:36.413Z,14.70
2024-04-09T06:41:07.165Z,14.60
2024-04-09T06:43:34.389Z,14.70
2024-04-09T06:46:04.336Z,14.70
2024-04-09T06:48:33.717Z,14.80
2024-04-09T06:51:07.887Z,14.70
2024-04-09T06:53:35.202Z,14.80
2024-04-09T06:56:05.011Z,14.80
2024-04-09T06:58:32.252Z,15.00
2024-04-09T07:01:02.256Z,14.90
2024-04-09T07:03:29.620Z,14.90
2024-04-09T07:05:59.558Z,15.00
2024-04-09T07:08:29.610Z,15.20
2024-04-09T07:10:59.893Z,15.30
2024-04-09T07:13:30.138Z,15.30
2024-04-09T07:16:02.039Z,15.30
2024-04-09T07:18:29.430Z,15.30
2024-04-09T07:21:01.314Z,15.30
2024-04-09T07:23:31.272Z,15.50
2024-04-09T07:26:01.574Z,15.70
2024-04-09T07:28:28.842Z,15.70
2024-04-09T07:30:58.729Z,15.60
2024-04-09T07:33:26.057Z,15.60
2024-04-09T07:36:01.792Z,15.50
2024-04-09T07:38:32.394Z,15.40
2024-04-09T07:41:02.330Z,15.30
2024-04-09T07:43:35.360Z,15.20
2024-04-09T07:46:07.346Z,15.20
2024-04-09T07:48:35.307Z,15.20
2024-04-09T07:51:05.521Z,15.30
2024-04-09T07:53:35.577Z,15.40
2024-04-09T07:56:07.631Z,15.60
2024-04-09T07:58:35.557Z,15.70
2024-04-09T08:01:05.755Z,15.70
2024-04-09T08:03:33.637Z,15.60
2024-04-09T08:06:05.134Z,15.50
2024-04-09T08:08:39.003Z,15.50
2024-04-09T08:11:11.500Z,15.40
2024-04-09T08:13:38.919Z,15.30
2024-04-09T08:16:09.638Z,15.20
2024-04-09T08:18:37.145Z,15.10
2024-04-09T08:21:07.743Z,15.00
2024-04-09T08:23:37.696Z,14.80
2024-04-09T08:26:09.792Z,14.70
2024-04-09T08:28:38.754Z,14.60
2024-04-09T08:31:12.898Z,14.40
2024-04-09T08:33:41.291Z,14.30
2024-04-09T08:36:12.322Z,14.10
2024-04-09T08:38:42.414Z,14.00
2024-04-09T08:41:12.992Z,14.00
2024-04-09T08:43:41.529Z,14.00
2024-04-09T08:46:13.864Z,13.90
2024-04-09T08:48:42.152Z,13.90
2024-04-09T08:51:13.936Z,13.70
2024-04-09T08:53:46.574Z,13.70
2024-04-09T08:56:16.733Z,13.40
2024-04-09T08:58:44.842Z,13.30
2024-04-09T09:01:14.793Z,13.20
2024-04-09T09:03:42.571Z,13.10
2024-04-09T09:06:12.789Z,13.10
2024-04-09T09:08:44.203Z,13.00
2024-04-09T09:11:14.961Z,13.00
2024-04-09T09:13:42.507Z,12.90
2024-04-09T09:16:13.118Z,12.80
2024-04-09T09:18:40.524Z,12.70
2024-04-09T09:21:10.572Z,12.60
2024-04-09T09:23:37.815Z,12.60
2024-04-09T09:26:10.383Z,12.50
2024-04-09T09:28:38.065Z,12.30
2024-04-09T09:31:08.058Z,12.30
2024-04-09T09:33:40.523Z,12.20
2024-04-09T09:36:11.714Z,12.10
2024-04-09T09:38:40.475Z,12.10
2024-04-09T09:41:14.742Z,12.00
2024-04-09T09:43:43.618Z,12.00
2024-04-09T09:46:15.796Z,12.00
2024-04-09T09:48:44.724Z,11.90
2024-04-09T09:51:15.629Z,11.80
2024-04-09T09:53:43.619Z,11.80
2024-04-09T09:56:18.114Z,11.90
2024-04-09T09:58:46.473Z,12.00
2024-04-09T10:01:17.383Z,12.00
2024-04-09T10:03:45.127Z,12.20
2024-04-09T10:06:15.188Z,12.30
2024-04-09T10:08:43.080Z,12.30
2024-04-09T10:11:15.906Z,12.50
2024-04-09T10:13:51.155Z,12.40
2024-04-09T10:16:22.374Z,12.60
2024-04-09T10:18:52.149Z,12.50
2024-04-09T10:21:30.976Z,12.50
2024-04-09T10:24:00.496Z,12.60
2024-04-09T10:26:33.142Z,12.50
2024-04-09T10:29:03.809Z,12.40
2024-04-09T10:31:33.859Z,12.30
2024-04-09T10:34:01.292Z,12.30
2024-04-09T10:36:31.524Z,12.20
2024-04-09T10:38:59.981Z,12.10
2024-04-09T10:41:35.674Z,12.00
2024-04-09T10:44:02.911Z,12.00
2024-04-09T10:46:32.873Z,11.90
2024-04-09T10:49:00.335Z,12.00
2024-04-09T10:51:30.346Z,11.90
2024-04-09T10:54:02.444Z,11.90
2024-04-09T10:56:36.324Z,12.00
2024-04-09T10:59:13.639Z,12.00
2024-04-09T11:01:45.490Z,11.90
2024-04-09T11:04:14.697Z,11.90
2024-04-09T11:06:45.803Z,11.90
2024-04-09T11:09:18.934Z,11.80
2024-04-09T11:11:51.714Z,11.80
2024-04-09T11:14:19.231Z,11.70
2024-04-09T11:16:52.151Z,11.70
2024-04-09T11:19:25.170Z,11.80
2024-04-09T11:21:55.502Z,11.90
2024-04-09T11:24:23.424Z,12.00
2024-04-09T11:26:56.123Z,12.20
2024-04-09T11:29:24.096Z,12.20
2024-04-09T11:31:55.604Z,12.20
2024-04-09T11:34:27.588Z,12.30
2024-04-09T11:36:57.936Z,12.20
2024-04-09T11:39:25.665Z,12.30
2024-04-09T11:41:58.314Z,12.30
2024-04-09T11:44:26.162Z,12.20
2024-04-09T11:46:56.092Z,12.20
2024-04-09T11:49:23.466Z,12.20
2024-04-09T11:51:54.195Z,12.20
2024-04-09T11:54:21.512Z,12.20
2024-04-09T11:56:51.328Z,12.30
2024-04-09T11:59:21.236Z,12.30
2024-04-09T12:01:51.248Z,12.30
2024-04-09T12:04:19.549Z,12.30
2024-04-09T12:06:49.620Z,12.40
2024-04-09T12:09:16.917Z,12.40
2024-04-09T12:12:11.183Z,12.30
2024-04-09T12:14:41.107Z,12.40
2024-04-09T12:17:12.132Z,12.50
2024-04-09T12:19:41.301Z,12.70
2024-04-09T12:22:15.655Z,12.80
2024-04-09T12:24:43.048Z,13.00
2024-04-09T12:27:13.314Z,13.20
2024-04-09T12:29:44.194Z,13.30
2024-04-09T12:32:14.127Z,13.30
2024-04-09T12:34:41.818Z,13.40
2024-04-09T12:37:11.899Z,13.30
2024-04-09T12:39:40.339Z,13.40
2024-04-09T12:42:10.926Z,13.30
2024-04-09T12:44:38.499Z,13.20
2024-04-09T12:47:11.736Z,13.20
2024-04-09T12:49:44.404Z,13.30
2024-04-09T12:52:15.621Z,13.40
2024-04-09T12:54:43.887Z,13.40
2024-04-09T12:57:13.784Z,13.50
2024-04-09T12:59:53.560Z,13.60
2024-04-09T13:02:33.894Z,13.70
2024-04-09T13:05:02.062Z,13.70
2024-04-09T13:07:32.756Z,13.60
2024-04-09T13:10:00.143Z,13.70
2024-04-09T13:12:30.183Z,13.80
2024-04-09T13:17:34.141Z,13.90
2024-04-09T13:20:01.583Z,13.90
2024-04-09T13:22:31.482Z,13.90
2024-04-09T13:24:58.760Z,14.10
2024-04-09T13:27:28.638Z,14.10
2024-04-09T13:29:56.114Z,14.00
2024-04-09T13:32:26.135Z,14.10
2024-04-09T13:34:56.025Z,14.10
2024-04-09T13:37:26.315Z,14.10
2024-04-09T13:39:53.555Z,14.00
2024-04-09T13:42:23.709Z,13.80
2024-04-09T13:44:50.956Z,13.90
2024-04-09T13:47:21.513Z,14.00
2024-04-09T13:49:48.943Z,14.00
2024-04-09T13:52:21.426Z,14.00
2024-04-09T13:54:48.809Z,14.00
2024-04-09T13:57:19.946Z,14.10
2024-04-09T13:59:47.796Z,14.20
2024-04-09T14:02:19.473Z,14.20
2024-04-09T14:04:48.172Z,14.10
2024-04-09T14:07:20.725Z,14.00
2024-04-09T14:09:48.565Z,14.00
2024-04-09T14:12:18.687Z,14.00
2024-04-09T14:14:46.114Z,14.10
2024-04-09T14:17:16.102Z,14.00
2024-04-09T14:19:43.829Z,13.90
2024-04-09T14:22:14.058Z,13.80
2024-04-09T14:24:44.067Z,13.70
2024-04-09T14:27:14.292Z,13.80
2024-04-09T14:29:43.809Z,13.80
2024-04-09T14:32:14.727Z,13.90
2024-04-09T14:34:42.009Z,13.90
2024-04-09T14:37:12.168Z,13.90
2024-04-09T14:39:39.588Z,13.90
2024-04-09T14:42:14.281Z,13.60
2024-04-09T14:44:42.543Z,13.80
2024-04-09T14:47:12.624Z,13.80
2024-04-09T14:49:46.169Z,13.90
2024-04-09T14:52:16.117Z,13.80
2024-04-09T14:54:43.550Z,13.80
2024-04-09T14:57:15.974Z,13.80
2024-04-09T14:59:43.227Z,13.70
2024-04-09T15:02:14.455Z,13.70
2024-04-09T15:04:41.837Z,13.80
2024-04-09T15:07:12.106Z,13.90
2024-04-09T15:09:39.763Z,14.20
2024-04-09T15:12:10.381Z,13.80
2024-04-09T15:14:40.560Z,13.80
2024-04-09T15:17:10.583Z,13.80
2024-04-09T15:19:38.177Z,13.80
2024-04-09T15:22:08.470Z,13.70
2024-04-09T15:24:38.767Z,13.70
2024-04-09T15:27:06.249Z,13.70
2024-04-09T15:29:36.129Z,14.00
2024-04-09T15:32:07.175Z,13.70
2024-04-09T15:34:37.067Z,13.70
2024-04-09T15:37:04.807Z,13.60
2024-04-09T15:39:34.657Z,13.50
2024-04-09T15:42:01.875Z,13.60
2024-04-09T15:44:31.879Z,13.50
2024-04-09T15:46:59.218Z,13.40
2024-04-09T15:49:31.756Z,13.40
2024-04-09T15:51:58.981Z,13.40
2024-04-09T15:54:28.925Z,13.40
2024-04-09T15:56:56.137Z,13.30
2024-04-09T15:59:26.086Z,13.30
2024-04-09T16:01:53.637Z,13.40
2024-04-09T16:04:24.932Z,13.30
2024-04-09T16:06:57.622Z,13.30
2024-04-09T16:09:24.919Z,13.30
2024-04-09T16:11:54.826Z,13.40
2024-04-09T16:14:22.551Z,13.20
2024-04-09T16:16:53.115Z,13.20
2024-04-09T16:19:24.211Z,13.30
2024-04-09T16:21:58.308Z,13.30
2024-04-09T16:24:26.164Z,13.30
2024-04-09T16:26:56.339Z,13.20
2024-04-09T16:29:23.815Z,13.20
2024-04-09T16:31:53.755Z,13.20
2024-04-09T16:34:21.147Z,13.10
2024-04-09T16:36:51.174Z,13.10
2024-04-09T16:39:21.162Z,13.00
2024-04-09T16:41:50.987Z,12.90
2024-04-09T16:44:18.309Z,12.90
2024-04-09T16:46:48.215Z,12.90
2024-04-09T16:49:16.466Z,12.80
2024-04-09T16:51:46.429Z,12.70
2024-04-09T16:54:15.586Z,12.70
2024-04-09T16:56:50.846Z,12.70
2024-04-09T16:59:18.669Z,12.60
2024-04-09T17:01:48.835Z,12.50
2024-04-09T17:04:16.512Z,12.50
2024-04-09T17:06:46.998Z,12.50
2024-04-09T17:09:15.843Z,12.40
2024-04-09T17:11:48.939Z,12.40
2024-04-09T17:14:17.413Z,12.40
2024-04-09T17:16:47.410Z,12.40
2024-04-09T17:19:14.740Z,12.50
2024-04-09T17:21:44.554Z,12.40
2024-04-09T17:24:13.609Z,12.40
2024-04-09T17:26:44.782Z,12.40
2024-04-09T17:29:15.673Z,12.40
2024-04-09T17:31:45.640Z,12.30
2024-04-09T17:34:13.234Z,12.30
2024-04-09T17:36:43.143Z,12.20
2024-04-09T17:39:10.413Z,12.20
2024-04-09T17:41:40.602Z,12.20
2024-04-09T17:44:07.905Z,12.10
2024-04-09T17:46:40.429Z,12.00
2024-04-09T17:49:08.123Z,12.00
2024-04-09T17:51:38.496Z,12.00
2024-04-09T17:54:05.825Z,12.00
2024-04-09T17:56:35.900Z,11.90
2024-04-09T17:59:03.773Z,11.90
2024-04-09T18:01:35.409Z,12.00
2024-04-09T18:04:07.018Z,11.90
2024-04-09T18:06:36.903Z,11.90
2024-04-09T18:09:05.980Z,11.90
2024-04-09T18:11:36.360Z,11.90
2024-04-09T18:14:03.867Z,11.90
2024-04-09T18:16:33.715Z,11.80
2024-04-09T18:19:01.304Z,11.70
2024-04-09T18:21:34.500Z,11.60
2024-04-09T18:24:02.056Z,11.60
2024-04-09T18:26:32.001Z,11.50
2024-04-09T18:28:59.615Z,11.50
2024-04-09T18:31:29.866Z,11.50
2024-04-09T18:33:59.207Z,11.40
2024-04-09T18:36:29.161Z,11.30
2024-04-09T18:38:59.505Z,11.30
2024-04-09T18:41:29.572Z,11.30
2024-04-09T18:43:57.649Z,11.20
2024-04-09T18:46:27.638Z,11.20
2024-04-09T18:48:55.132Z,11.30
2024-04-09T18:51:25.756Z,11.10
2024-04-09T18:53:53.194Z,11.00
2024-04-09T18:56:25.816Z,11.00
2024-04-09T18:58:53.180Z,11.00
2024-04-09T19:01:23.424Z,10.90
2024-04-09T19:03:50.871Z,10.90
2024-04-09T19:06:22.880Z,10.80
2024-04-09T19:08:50.199Z,10.70
2024-04-09T19:11:20.235Z,10.60
2024-04-09T19:13:52.425Z,10.50
2024-04-09T19:16:22.352Z,10.40
2024-04-09T19:18:49.729Z,10.40
2024-04-09T19:21:19.998Z,10.50
2024-04-09T19:23:47.395Z,10.50
2024-04-09T19:26:17.882Z,10.50
2024-04-09T19:28:45.745Z,10.50
2024-04-09T19:31:20.409Z,10.40
2024-04-09T19:33:47.780Z,10.40
2024-04-09T19:36:17.664Z,10.30
2024-04-09T19:38:44.919Z,10.30
2024-04-09T19:41:15.228Z,10.10
2024-04-09T19:43:45.313Z,10.00
2024-04-09T19:46:18.042Z,9.90
2024-04-09T19:48:45.487Z,9.80
2024-04-09T19:51:15.859Z,9.70
2024-04-09T19:53:52.200Z,9.70
2024-04-09T19:56:26.593Z,9.60
2024-04-09T19:58:54.343Z,9.60
2024-04-09T20:01:27.463Z,9.50
2024-04-09T20:03:55.362Z,9.50
2024-04-09T20:06:25.219Z,9.50
2024-04-09T20:08:55.830Z,9.50
2024-04-09T20:11:26.081Z,9.40
2024-04-09T20:13:53.563Z,9.40
2024-04-09T20:16:26.412Z,9.40
2024-04-09T20:18:53.823Z,9.40
2024-04-09T20:21:23.844Z,9.40
2024-04-09T20:23:51.516Z,9.30
2024-04-09T20:26:23.466Z,9.30
2024-04-09T20:28:51.582Z,9.20
2024-04-09T20:31:21.663Z,9.20
2024-04-09T20:33:51.802Z,9.20
2024-04-09T20:36:21.945Z,9.30
2024-04-09T20:38:49.214Z,9.20
2024-04-09T20:41:19.117Z,9.20
2024-04-09T20:43:46.698Z,9.20
2024-04-09T20:46:16.541Z,9.10
2024-04-09T20:48:44.263Z,9.10
2024-04-09T20:51:17.357Z,9.00
2024-04-09T20:53:45.038Z,8.90
2024-04-09T20:56:15.312Z,8.80
2024-04-09T20:58:43.174Z,8.80
2024-04-09T21:01:13.164Z,8.80
2024-04-09T21:03:40.562Z,8.80
2024-04-09T21:06:10.525Z,8.70
2024-04-09T21:08:43.984Z,8.70
2024-04-09T21:11:15.364Z,8.70
2024-04-09T21:13:42.614Z,8.70
2024-04-09T21:16:15.040Z,8.60
2024-04-09T21:18:44.747Z,8.60
2024-04-09T21:21:14.815Z,8.50
2024-04-09T21:23:44.658Z,8.50
2024-04-09T21:26:14.807Z,8.50
2024-04-09T21:28:42.173Z,8.40
2024-04-09T21:31:12.046Z,8.40
2024-04-09T21:33:39.442Z,8.40
2024-04-09T21:36:09.635Z,8.40
2024-04-09T21:38:36.915Z,8.50
2024-04-09T21:41:10.118Z,8.50
2024-04-09T21:43:37.741Z,8.50
2024-04-09T21:46:07.573Z,8.50
2024-04-09T21:48:35.211Z,8.50
2024-04-09T21:51:05.194Z,8.60
2024-04-09T21:53:32.965Z,8.60
2024-04-09T21:56:04.304Z,8.60
2024-04-09T21:58:35.351Z,8.60
2024-04-09T22:01:05.524Z,8.60
2024-04-09T22:03:33.565Z,8.60
2024-04-09T22:06:04.213Z,8.60
2024-04-09T22:08:31.630Z,8.60
2024-04-09T22:11:01.764Z,8.60
2024-04-09T22:13:29.000Z,8.60
2024-04-09T22:16:01.467Z,8.60
2024-04-09T22:18:29.172Z,8.60
2024-04-09T22:20:59.250Z,8.60
2024-04-09T22:23:26.680Z,8.60
2024-04-09T22:25:59.919Z,8.60
2024-04-09T22:28:27.231Z,8.60
2024-04-09T22:30:57.771Z,8.60
2024-04-09T22:33:27.965Z,8.60
2024-04-09T22:35:58.166Z,8.60
2024-04-09T22:38:25.597Z,8.60
2024-04-09T22:40:55.664Z,8.60
2024-04-09T22:43:41.104Z,8.70
2024-04-09T22:46:11.657Z,8.70
2024-04-09T22:48:41.730Z,8.60
2024-04-09T22:51:12.362Z,8.70
2024-04-09T22:53:39.741Z,8.60
2024-04-09T22:56:09.744Z,8.70
2024-04-09T22:58:37.015Z,8.60
2024-04-09T23:01:08.247Z,8.60
2024-04-09T23:03:38.815Z,8.70
2024-04-09T23:06:12.411Z,8.70
2024-04-09T23:08:40.277Z,8.70
2024-04-09T23:11:12.132Z,8.70
2024-04-09T23:13:39.538Z,8.70
2024-04-09T23:16:11.243Z,8.70
2024-04-09T23:18:38.936Z,8.70
2024-04-09T23:21:11.720Z,8.70
2024-04-09T23:23:39.071Z,8.70
2024-04-09T23:26:08.984Z,8.70
2024-04-09T23:28:37.422Z,8.70
2024-04-09T23:31:08.195Z,8.70
2024-04-09T23:33:36.408Z,8.70
2024-04-09T23:36:08.254Z,8.70
2024-04-09T23:38:38.794Z,8.80
2024-04-09T23:41:08.841Z,8.90
2024-04-09T23:43:38.266Z,8.80
2024-04-09T23:46:08.960Z,8.80
2024-04-09T23:48:37.150Z,8.80
2024-04-09T23:51:08.558Z,8.80
2024-04-09T23:53:38.869Z,8.80
2024-04-09T23:56:09.864Z,8.70
2024-04-09T23:58:37.462Z,8.70
